createdAt,value
2023-06-03T00:01:12.744Z,94798.88
2023-06-03T00:04:17.567Z,94796.66
2023-06-03T00:07:20.827Z,94798.25
2023-06-03T00:10:23.972Z,94791.81
2023-06-03T00:13:27.000Z,94782.25
2023-06-03T00:16:36.694Z,94777.69
2023-06-03T00:19:39.819Z,94780.38
2023-06-03T00:22:42.909Z,94770.81
2023-06-03T00:25:46.110Z,94770.00
2023-06-03T00:28:49.391Z,94775.34
2023-06-03T00:31:54.135Z,94772.69
2023-06-03T00:34:57.412Z,94768.44
2023-06-03T00:38:00.682Z,94766.41
2023-06-03T00:41:03.931Z,94764.22
2023-06-03T00:44:07.165Z,94771.91
2023-06-03T00:47:11.776Z,94765.00
2023-06-03T00:50:15.753Z,94760.44
2023-06-03T00:53:19.032Z,94753.56
2023-06-03T00:56:22.396Z,94760.78
2023-06-03T00:59:25.614Z,94749.63
2023-06-03T01:02:30.796Z,94753.88
2023-06-03T01:05:34.022Z,94746.34
2023-06-03T01:08:47.056Z,94746.97
2023-06-03T01:11:59.750Z,94740.88
2023-06-03T01:15:05.770Z,94743.22
2023-06-03T01:18:10.508Z,94746.19
2023-06-03T01:21:15.249Z,94753.09
2023-06-03T01:24:21.510Z,94750.41
2023-06-03T01:27:24.598Z,94749.97
2023-06-03T01:30:27.829Z,94748.06
2023-06-03T01:33:31.812Z,94746.19
2023-06-03T01:36:36.679Z,94746.19
2023-06-03T01:39:42.502Z,94753.41
2023-06-03T01:42:45.956Z,94755.28
2023-06-03T01:45:49.283Z,94760.94
2023-06-03T01:48:52.446Z,94763.59
2023-06-03T01:51:55.552Z,94756.69
2023-06-03T01:55:00.169Z,94755.91
2023-06-03T01:58:03.568Z,94763.91
2023-06-03T02:01:06.915Z,94774.25
2023-06-03T02:04:10.124Z,94772.38
2023-06-03T02:07:13.382Z,94775.03
2023-06-03T02:10:17.878Z,94774.25
2023-06-03T02:13:21.548Z,94777.25
2023-06-03T02:16:24.657Z,94765.78
2023-06-03T02:19:28.580Z,94762.63
2023-06-03T02:22:32.129Z,94771.91
2023-06-03T02:25:37.074Z,94772.69
2023-06-03T02:28:40.213Z,94777.06
2023-06-03T02:31:44.638Z,94776.28
2023-06-03T02:34:48.033Z,94780.03
2023-06-03T02:37:52.264Z,94783.78
2023-06-03T02:40:56.794Z,94791.47
2023-06-03T02:43:59.893Z,94797.13
2023-06-03T02:47:03.045Z,94796.66
2023-06-03T02:50:07.166Z,94794.00
2023-06-03T02:53:11.102Z,94800.88
2023-06-03T02:56:16.053Z,94804.34
2023-06-03T02:59:19.125Z,94804.66
2023-06-03T03:02:22.254Z,94808.09
2023-06-03T03:05:26.254Z,94808.88
2023-06-03T03:08:29.426Z,94813.75
2023-06-03T03:11:33.946Z,94811.69
2023-06-03T03:14:37.127Z,94815.16
2023-06-03T03:17:40.615Z,94817.50
2023-06-03T03:20:43.869Z,94822.50
2023-06-03T03:23:47.071Z,94822.84
2023-06-03T03:26:51.956Z,94820.63
2023-06-03T03:29:56.699Z,94827.69
2023-06-03T03:33:00.406Z,94831.28
2023-06-03T03:36:09.621Z,94828.00
2023-06-03T03:39:13.055Z,94834.91
2023-06-03T03:42:17.583Z,94843.69
2023-06-03T03:45:22.783Z,94840.53
2023-06-03T03:48:31.521Z,94846.66
2023-06-03T03:51:36.787Z,94847.75
2023-06-03T03:54:40.676Z,94848.69
2023-06-03T03:57:45.446Z,94843.38
2023-06-03T04:00:49.031Z,94846.03
2023-06-03T04:03:53.065Z,94852.16
2023-06-03T04:06:56.598Z,94842.00
2023-06-03T04:09:59.659Z,94844.66
2023-06-03T04:13:07.583Z,94851.25
2023-06-03T04:16:12.782Z,94856.09
2023-06-03T04:19:18.908Z,94839.59
2023-06-03T04:22:23.669Z,94857.19
2023-06-03T04:25:26.847Z,94856.41
2023-06-03T04:28:31.298Z,94860.94
2023-06-03T04:31:34.374Z,94850.41
2023-06-03T04:34:50.016Z,94850.88
2023-06-03T04:37:53.098Z,94854.19
2023-06-03T04:40:56.370Z,94851.34
2023-06-03T04:44:02.670Z,94858.72
2023-06-03T04:47:06.248Z,94850.72
2023-06-03T04:50:10.176Z,94844.16
2023-06-03T04:53:13.868Z,94864.06
2023-06-03T04:56:18.119Z,94861.88
2023-06-03T04:59:22.738Z,94858.56
2023-06-03T05:02:31.254Z,94857.00
2023-06-03T05:05:34.467Z,94859.34
2023-06-03T05:08:37.686Z,94859.19
2023-06-03T05:11:40.777Z,94865.47
2023-06-03T05:14:45.879Z,94871.59
2023-06-03T05:17:50.017Z,94872.84
2023-06-03T05:20:53.234Z,94876.59
2023-06-03T05:23:56.455Z,94875.81
2023-06-03T05:26:59.616Z,94876.75
2023-06-03T05:30:04.120Z,94887.88
2023-06-03T05:33:08.353Z,94887.25
2023-06-03T05:36:11.715Z,94886.63
2023-06-03T05:39:15.119Z,94889.91
2023-06-03T05:42:18.194Z,94886.94
2023-06-03T05:45:22.666Z,94892.44
2023-06-03T05:48:25.773Z,94889.25
2023-06-03T05:51:28.889Z,94891.94
2023-06-03T05:54:31.953Z,94891.66
2023-06-03T05:57:35.843Z,94890.69
2023-06-03T06:00:40.343Z,94887.19
2023-06-03T06:03:43.640Z,94874.16
2023-06-03T06:06:46.955Z,94879.84
2023-06-03T06:09:50.000Z,94884.09
2023-06-03T06:12:53.364Z,94885.50
2023-06-03T06:16:02.673Z,94887.19
2023-06-03T06:19:05.833Z,94877.03
2023-06-03T06:22:08.975Z,94882.81
2023-06-03T06:25:12.435Z,94886.41
2023-06-03T06:28:15.567Z,94875.91
2023-06-03T06:31:20.375Z,94876.44
2023-06-03T06:34:24.009Z,94871.06
2023-06-03T06:37:27.188Z,94873.47
2023-06-03T06:40:35.143Z,94878.38
2023-06-03T06:43:38.211Z,94881.84
2023-06-03T06:46:42.791Z,94873.66
2023-06-03T06:49:46.006Z,94876.59
2023-06-03T06:52:49.117Z,94880.75
2023-06-03T06:55:53.841Z,94873.16
2023-06-03T06:58:56.857Z,94888.78
2023-06-03T07:02:01.404Z,94881.16
2023-06-03T07:05:04.686Z,94889.28
2023-06-03T07:08:08.558Z,94887.28
2023-06-03T07:11:11.738Z,94888.56
2023-06-03T07:14:15.072Z,94894.25
2023-06-03T07:17:19.565Z,94893.47
2023-06-03T07:20:24.492Z,94895.03
2023-06-03T07:23:28.924Z,94900.06
2023-06-03T07:26:33.281Z,94901.81
2023-06-03T07:29:39.463Z,94900.41
2023-06-03T07:32:45.657Z,94904.03
2023-06-03T07:35:53.332Z,94908.44
2023-06-03T07:39:01.957Z,94911.28
2023-06-03T07:42:08.094Z,94915.53
2023-06-03T07:45:11.631Z,94917.03
2023-06-03T07:48:17.265Z,94919.28
2023-06-03T07:51:20.609Z,94924.00
2023-06-03T07:54:24.192Z,94921.03
2023-06-03T07:57:27.503Z,94929.50
2023-06-03T08:00:31.101Z,94929.81
2023-06-03T08:03:36.599Z,94937.81
2023-06-03T08:06:41.047Z,94941.72
2023-06-03T08:09:44.609Z,94936.84
2023-06-03T08:12:47.876Z,94932.88
2023-06-03T08:15:51.098Z,94934.59
2023-06-03T08:18:56.665Z,94937.16
2023-06-03T08:21:59.810Z,94935.13
2023-06-03T08:25:02.966Z,94942.66
2023-06-03T08:28:06.187Z,94934.53
2023-06-03T08:31:09.408Z,94927.13
2023-06-03T08:34:13.948Z,94933.75
2023-06-03T08:37:17.303Z,94944.47
2023-06-03T08:40:22.808Z,94935.25
2023-06-03T08:43:35.467Z,94933.19
2023-06-03T08:46:49.051Z,94938.41
2023-06-03T08:50:02.138Z,94932.28
2023-06-03T08:53:10.174Z,94930.25
2023-06-03T08:56:14.668Z,94929.63
2023-06-03T08:59:22.207Z,94932.47
2023-06-03T09:02:26.076Z,94929.94
2023-06-03T09:05:31.169Z,94924.75
2023-06-03T09:08:37.071Z,94926.31
2023-06-03T09:11:41.120Z,94925.69
2023-06-03T09:14:46.243Z,94926.66
2023-06-03T09:17:49.383Z,94923.66
2023-06-03T09:20:53.943Z,94919.59
2023-06-03T09:23:57.161Z,94911.44
2023-06-03T09:27:00.509Z,94916.91
2023-06-03T09:30:05.390Z,94913.47
2023-06-03T09:33:08.562Z,94905.44
2023-06-03T09:36:16.277Z,94910.78
2023-06-03T09:39:34.253Z,94879.72
2023-06-03T09:42:47.439Z,94906.69
2023-06-03T09:45:50.565Z,94907.81
2023-06-03T09:48:54.345Z,94904.03
2023-06-03T09:51:58.913Z,94902.94
2023-06-03T09:55:03.566Z,94902.47
2023-06-03T09:58:09.985Z,94895.09
2023-06-03T10:01:14.506Z,94903.56
2023-06-03T10:04:21.854Z,94904.66
2023-06-03T10:07:26.802Z,94894.00
2023-06-03T10:10:29.913Z,94890.06
2023-06-03T10:13:33.136Z,94890.06
2023-06-03T10:16:36.281Z,94890.38
2023-06-03T10:19:40.547Z,94883.94
2023-06-03T10:22:45.990Z,94880.19
2023-06-03T10:25:53.747Z,94887.41
2023-06-03T10:28:58.928Z,94894.63
2023-06-03T10:32:03.648Z,94894.63
2023-06-03T10:35:07.712Z,94893.84
2023-06-03T10:38:12.634Z,94892.59
2023-06-03T10:41:16.328Z,94889.94
2023-06-03T10:44:20.417Z,94886.00
2023-06-03T10:47:27.865Z,94884.88
2023-06-03T10:50:43.037Z,94882.03
2023-06-03T10:54:03.954Z,94880.63
2023-06-03T10:57:10.164Z,94874.97
2023-06-03T11:00:14.229Z,94874.19
2023-06-03T11:03:18.069Z,94872.47
2023-06-03T11:06:47.940Z,94874.34
2023-06-03T11:09:52.450Z,94877.03
2023-06-03T11:12:55.512Z,94868.56
2023-06-03T11:16:05.577Z,94869.03
2023-06-03T11:19:30.025Z,94877.81
2023-06-03T11:22:46.305Z,94879.06
2023-06-03T11:25:50.898Z,94876.38
2023-06-03T11:28:54.004Z,94865.25
2023-06-03T11:32:14.121Z,94867.59
2023-06-03T11:35:30.898Z,94862.91
2023-06-03T11:39:01.602Z,94864.78
2023-06-03T11:42:09.871Z,94867.59
2023-06-03T11:45:31.024Z,94868.56
2023-06-03T11:48:38.630Z,94860.06
2023-06-03T11:51:41.995Z,94857.38
2023-06-03T11:54:49.163Z,94866.97
2023-06-03T11:57:56.219Z,94861.63
2023-06-03T12:01:20.154Z,94866.16
2023-06-03T12:04:23.324Z,94865.56
2023-06-03T12:07:26.405Z,94866.16
2023-06-03T12:10:30.544Z,94867.59
2023-06-03T12:13:42.458Z,94863.81
2023-06-03T12:16:46.704Z,94869.94
2023-06-03T12:19:50.759Z,94872.47
2023-06-03T12:23:00.764Z,94870.44
2023-06-03T12:26:03.924Z,94869.47
2023-06-03T12:29:10.276Z,94860.69
2023-06-03T12:32:13.854Z,94860.22
2023-06-03T12:35:17.310Z,94864.59
2023-06-03T12:38:20.443Z,94864.94
2023-06-03T12:41:23.667Z,94862.25
2023-06-03T12:44:28.439Z,94862.25
2023-06-03T12:47:31.725Z,94871.38
2023-06-03T12:50:36.436Z,94867.13
2023-06-03T12:53:39.631Z,94856.00
2023-06-03T12:56:44.746Z,94869.00
2023-06-03T13:00:10.748Z,94875.78
2023-06-03T13:03:14.299Z,94892.72
2023-06-03T13:06:17.679Z,94882.81
2023-06-03T13:09:20.823Z,94904.03
2023-06-03T13:12:24.744Z,94905.00
2023-06-03T13:15:29.850Z,94911.28
2023-06-03T13:18:33.139Z,94931.03
2023-06-03T13:21:36.570Z,94943.44
2023-06-03T13:24:39.635Z,94946.22
2023-06-03T13:27:43.764Z,94945.44
2023-06-03T13:30:50.398Z,94950.66
2023-06-03T13:33:53.715Z,94944.53
2023-06-03T13:36:57.120Z,94941.69
2023-06-03T13:40:00.301Z,94951.44
2023-06-03T13:43:04.191Z,94955.69
2023-06-03T13:46:09.443Z,94956.13
2023-06-03T13:49:12.743Z,94953.78
2023-06-03T13:52:15.942Z,94951.13
2023-06-03T13:55:19.661Z,94935.56
2023-06-03T13:58:23.160Z,94928.19
2023-06-03T14:01:28.473Z,94940.28
2023-06-03T14:04:32.015Z,94939.53
2023-06-03T14:07:35.161Z,94939.69
2023-06-03T14:10:38.345Z,94948.91
2023-06-03T14:13:41.457Z,94940.28
2023-06-03T14:16:46.489Z,94944.88
2023-06-03T14:19:49.641Z,94935.44
2023-06-03T14:22:52.794Z,94932.75
2023-06-03T14:25:56.116Z,94938.09
2023-06-03T14:28:59.180Z,94930.09
2023-06-03T14:32:04.396Z,94926.78
2023-06-03T14:35:09.710Z,94929.31
2023-06-03T14:38:12.809Z,94933.56
2023-06-03T14:41:16.438Z,94923.50
2023-06-03T14:44:19.567Z,94918.31
2023-06-03T14:47:24.291Z,94924.13
2023-06-03T14:50:27.407Z,94913.44
2023-06-03T14:53:30.502Z,94916.63
2023-06-03T14:56:33.654Z,94922.41
2023-06-03T14:59:36.867Z,94918.66
2023-06-03T15:02:41.477Z,94922.09
2023-06-03T15:05:44.633Z,94920.22
2023-06-03T15:08:47.807Z,94926.03
2023-06-03T15:11:51.015Z,94928.22
2023-06-03T15:14:54.292Z,94921.78
2023-06-03T15:17:58.885Z,94926.03
2023-06-03T15:21:01.997Z,94931.81
2023-06-03T15:24:05.749Z,94930.56
2023-06-03T15:27:09.534Z,94924.63
2023-06-03T15:30:13.520Z,94929.47
2023-06-03T15:33:18.321Z,94925.69
2023-06-03T15:36:21.650Z,94920.34
2023-06-03T15:39:24.887Z,94927.44
2023-06-03T15:42:28.105Z,94929.31
2023-06-03T15:45:31.234Z,94929.66
2023-06-03T15:48:35.828Z,94932.00
2023-06-03T15:51:39.785Z,94943.00
2023-06-03T15:54:43.037Z,94946.44
2023-06-03T15:57:46.219Z,94950.22
2023-06-03T16:00:49.253Z,94951.78
2023-06-03T16:03:54.024Z,94957.28
2023-06-03T16:06:57.567Z,94968.72
2023-06-03T16:10:00.752Z,94972.81
2023-06-03T16:13:03.902Z,94978.78
2023-06-03T16:16:07.541Z,94980.19
2023-06-03T16:19:12.307Z,94981.44
2023-06-03T16:22:15.629Z,94992.28
2023-06-03T16:25:18.870Z,94991.19
2023-06-03T16:28:22.507Z,94986.94
2023-06-03T16:31:26.090Z,94992.75
2023-06-03T16:34:30.670Z,94988.03
2023-06-03T16:37:33.828Z,95005.63
2023-06-03T16:40:36.915Z,94999.03
2023-06-03T16:43:40.065Z,94999.63
2023-06-03T16:46:43.159Z,95007.63
2023-06-03T16:49:47.713Z,95010.63
2023-06-03T16:52:50.864Z,95005.28
2023-06-03T16:55:53.926Z,95007.50
2023-06-03T16:58:56.967Z,94998.69
2023-06-03T17:02:00.096Z,94997.91
2023-06-03T17:05:04.953Z,95001.38
2023-06-03T17:08:08.213Z,94989.16
2023-06-03T17:11:11.413Z,94991.66
2023-06-03T17:14:14.635Z,94998.41
2023-06-03T17:17:19.181Z,95002.03
2023-06-03T17:20:23.960Z,95009.88
2023-06-03T17:23:27.205Z,95005.63
2023-06-03T17:26:30.295Z,95016.16
2023-06-03T17:29:33.432Z,95009.56
2023-06-03T17:32:36.708Z,95007.19
2023-06-03T17:35:41.263Z,95010.97
2023-06-03T17:38:44.390Z,95002.97
2023-06-03T17:41:48.642Z,95008.28
2023-06-03T17:44:51.742Z,95007.97
2023-06-03T17:47:54.911Z,94997.63
2023-06-03T17:50:59.604Z,95013.94
2023-06-03T17:54:02.775Z,95014.41
2023-06-03T17:57:06.895Z,95021.31
2023-06-03T18:00:11.571Z,95017.41
2023-06-03T18:03:14.897Z,95024.94
2023-06-03T18:06:19.682Z,95035.63
2023-06-03T18:09:22.825Z,95037.97
2023-06-03T18:12:25.907Z,95038.88
2023-06-03T18:15:29.374Z,95040.44
2023-06-03T18:18:33.992Z,95048.19
2023-06-03T18:21:38.531Z,95045.78
2023-06-03T18:24:41.649Z,95049.59
2023-06-03T18:27:44.832Z,95062.47
2023-06-03T18:30:47.929Z,95083.19
2023-06-03T18:33:52.113Z,95086.66
2023-06-03T18:36:56.592Z,95093.09
2023-06-03T18:40:00.010Z,95102.66
2023-06-03T18:43:03.232Z,95109.09
2023-06-03T18:46:06.747Z,95113.81
2023-06-03T18:49:10.138Z,95122.13
2023-06-03T18:52:14.569Z,95123.22
2023-06-03T18:55:17.993Z,95135.00
2023-06-03T18:58:21.269Z,95141.91
2023-06-03T19:01:24.468Z,95140.03
2023-06-03T19:04:27.633Z,95160.75
2023-06-03T19:07:32.380Z,95161.88
2023-06-03T19:10:35.564Z,95166.88
2023-06-03T19:13:38.605Z,95173.31
2023-06-03T19:16:43.852Z,95174.44
2023-06-03T19:19:47.344Z,95181.03
2023-06-03T19:22:51.792Z,95176.31
2023-06-03T19:25:55.601Z,95183.38
2023-06-03T19:28:59.112Z,95178.66
2023-06-03T19:32:02.601Z,95179.75
2023-06-03T19:35:06.446Z,95180.84
2023-06-03T19:38:11.049Z,95183.00
2023-06-03T19:41:14.461Z,95187.88
2023-06-03T19:44:17.542Z,95192.09
2023-06-03T19:47:20.755Z,95192.09
2023-06-03T19:50:23.957Z,95203.41
2023-06-03T19:53:28.883Z,95193.50
2023-06-03T19:56:31.982Z,95201.53
2023-06-03T19:59:35.160Z,95199.16
2023-06-03T20:02:38.491Z,95199.94
2023-06-03T20:05:43.616Z,95192.72
2023-06-03T20:08:48.342Z,95200.72
2023-06-03T20:11:52.218Z,95186.44
2023-06-03T20:14:55.512Z,95190.69
2023-06-03T20:17:58.902Z,95189.09
2023-06-03T20:21:02.238Z,95185.97
2023-06-03T20:24:08.385Z,95187.22
2023-06-03T20:27:12.782Z,95186.44
2023-06-03T20:30:16.017Z,95179.84
2023-06-03T20:33:19.298Z,95177.16
2023-06-03T20:36:23.923Z,95176.38
2023-06-03T20:39:28.978Z,95184.38
2023-06-03T20:42:32.220Z,95198.81
2023-06-03T20:45:40.807Z,95194.28
2023-06-03T20:48:43.901Z,95195.06
2023-06-03T20:51:46.941Z,95195.06
2023-06-03T20:54:51.410Z,95196.16
2023-06-03T20:57:54.553Z,95197.25
2023-06-03T21:00:57.740Z,95200.72
2023-06-03T21:04:01.061Z,95204.16
2023-06-03T21:07:06.343Z,95209.50
2023-06-03T21:10:11.551Z,95203.69
2023-06-03T21:13:16.728Z,95206.34
2023-06-03T21:16:19.927Z,95204.75
2023-06-03T21:19:23.631Z,95202.59
2023-06-03T21:22:27.424Z,95202.91
2023-06-03T21:25:31.874Z,95209.81
2023-06-03T21:28:34.992Z,95215.41
2023-06-03T21:31:39.679Z,95221.84
2023-06-03T21:34:42.792Z,95227.19
2023-06-03T21:37:45.979Z,95225.31
2023-06-03T21:40:50.433Z,95223.72
2023-06-03T21:43:53.580Z,95214.94
2023-06-03T21:46:56.797Z,95223.72
2023-06-03T21:49:59.913Z,95223.72
2023-06-03T21:53:06.417Z,95209.59
2023-06-03T21:56:10.926Z,95208.50
2023-06-03T21:59:14.050Z,95204.75
2023-06-03T22:02:17.327Z,95205.84
2023-06-03T22:05:20.481Z,95216.03
2023-06-03T22:08:23.639Z,95214.94
2023-06-03T22:11:28.516Z,95212.28
2023-06-03T22:14:31.633Z,95217.63
2023-06-03T22:17:34.784Z,95216.03
2023-06-03T22:20:37.871Z,95215.25
2023-06-03T22:23:41.150Z,95217.91
2023-06-03T22:26:45.886Z,95214.94
2023-06-03T22:29:48.900Z,95219.50
2023-06-03T22:32:51.925Z,95214.47
2023-06-03T22:35:56.558Z,95213.69
2023-06-03T22:38:59.852Z,95211.00
2023-06-03T22:42:04.386Z,95204.59
2023-06-03T22:45:08.391Z,95210.69
2023-06-03T22:48:11.591Z,95211.78
2023-06-03T22:51:14.648Z,95209.13
2023-06-03T22:54:18.393Z,95208.34
2023-06-03T22:57:22.904Z,95217.13
2023-06-03T23:00:25.999Z,95216.03
2023-06-03T23:03:29.091Z,95219.81
2023-06-03T23:06:32.282Z,95214.47
2023-06-03T23:09:35.641Z,95215.56
2023-06-03T23:12:40.129Z,95205.97
2023-06-03T23:15:44.101Z,95214.78
2023-06-03T23:18:47.181Z,95204.41
2023-06-03T23:21:50.258Z,95203.31
2023-06-03T23:24:53.318Z,95207.56
2023-06-03T23:27:57.841Z,95202.53
2023-06-03T23:31:01.781Z,95203.31
2023-06-03T23:34:04.919Z,95207.56
2023-06-03T23:37:08.036Z,95210.22
2023-06-03T23:40:12.599Z,95215.56
2023-06-03T23:43:17.145Z,95212.09
2023-06-03T23:46:20.324Z,95212.59
2023-06-03T23:49:23.603Z,95212.09
2023-06-03T23:52:26.776Z,95210.22
2023-06-03T23:55:29.792Z,95211.00
2023-06-03T23:58:34.367Z,95217.13
